Thunder radar more information blitzortung!


Radar de pluja more information rain snow radar


Visita la nostra xarxa de llocs de meteo:

Template documentation
and downloads

And another site



No particular awareness of the weather is required.    There are no Weather-warnings

Pagina Historial Weather Underground text

Diari Resum Setembre 12, 2017 Unitats:  Imperial    Mètric   Tant
« Previous Dia
SegĂźent Dia »
Diari Setmana Mensual Anual Personalitzada
  Maxima: Minima: Media:
Temperatura: 82.4 °F 62.2 °F 70.9 °F
Punt de rosada: 58.3 °F 47.7 °F 53.6 °F
Humitat: 83 % 33 % 57 %
Wind Speed: 10.4 mph 0 mph 3 mph
RĂ fegues de vent: 10.4 mph - -
Vent:- - SSW
Pression baro: 30.2 in 29.8 in -
Precipitacions: 0 in    
Historical Graphs
 
 
Dades de taula per Setembre 12, 2017
Temps Temperatura Punt de rosada Pression baro Vent Wind Speed RĂ fegues de vent Humitat Rainfall Rate (Hourly)
00:00 63.9 °F 58.3 °F 29.9 in Calm   2 mph 82 % 0 in
00:03 82.4 °F 51.3 °F 29.8 in SW 7.4 mph 7.4 mph 34 % 0 in
00:08 82.4 °F 51.3 °F 29.8 in SW 7.4 mph 7.4 mph 34 % 0 in
00:10 63.3 °F 57 °F 29.8 in Calm   2 mph 80 % 0 in
00:13 82.4 °F 51.3 °F 29.8 in SW 7.4 mph 7.4 mph 34 % 0 in
00:20 63.5 °F 57.6 °F 29.8 in West 1 mph 2 mph 81 % 0 in
00:30 63 °F 56.7 °F 29.9 in West 2 mph 2 mph 80 % 0 in
00:40 62.8 °F 56.1 °F 29.9 in West 2 mph 2 mph 79 % 0 in
00:50 62.6 °F 55.2 °F 29.9 in West 1 mph 1 mph 77 % 0 in
01:00 63.1 °F 55 °F 29.9 in West 1 mph 2 mph 75 % 0 in
01:10 63.7 °F 54.5 °F 29.9 in West 3 mph 4 mph 72 % 0 in
01:20 63.9 °F 54 °F 29.9 in West 3 mph 3 mph 70 % 0 in
01:30 63.7 °F 53.2 °F 29.9 in West 1 mph 2 mph 69 % 0 in
01:40 63.5 °F 52.7 °F 29.8 in WSW 1 mph 3 mph 68 % 0 in
01:50 63.5 °F 52.3 °F 29.8 in WSW 1 mph 2 mph 67 % 0 in
02:00 63.3 °F 52.2 °F 29.9 in West 1 mph 3 mph 67 % 0 in
02:10 63.5 °F 52 °F 29.8 in West 1 mph 2 mph 66 % 0 in
02:20 63.5 °F 52 °F 29.8 in West 1 mph 2 mph 66 % 0 in
02:30 63.1 °F 51.3 °F 29.9 in Calm   1 mph 65 % 0 in
02:40 63.3 °F 51.3 °F 29.9 in WSW 1 mph 2 mph 65 % 0 in
02:50 63.7 °F 51.3 °F 29.9 in Calm   2 mph 64 % 0 in
03:00 63.3 °F 50.9 °F 29.9 in Calm   2 mph 64 % 0 in
03:10 63.3 °F 50.9 °F 29.9 in SW 1 mph 2 mph 64 % 0 in
03:20 62.8 °F 50.4 °F 29.9 in SW 1 mph 2 mph 64 % 0 in
03:30 63.3 °F 50.9 °F 29.9 in WSW 1 mph 2 mph 64 % 0 in
03:40 63.7 °F 51.3 °F 29.9 in SW 1 mph 2 mph 64 % 0 in
03:50 64.2 °F 51.8 °F 29.9 in WSW 1 mph 2 mph 64 % 0 in
04:00 64.6 °F 51.3 °F 29.9 in Calm   2 mph 62 % 0 in
04:10 64.9 °F 51.6 °F 29.9 in SW 1 mph 2 mph 62 % 0 in
04:20 65.3 °F 52 °F 29.9 in SW 1 mph 1 mph 62 % 0 in
04:30 65.3 °F 52 °F 29.9 in SW 3 mph 4 mph 62 % 0 in
04:40 65.8 °F 52 °F 29.9 in SW 2 mph 3 mph 61 % 0 in
04:50 66.6 °F 51.8 °F 29.9 in SW 1 mph 2 mph 59 % 0 in
05:00 66.7 °F 52 °F 29.9 in SW 1 mph 2 mph 59 % 0 in
05:10 68.2 °F 52.3 °F 29.9 in SW 2 mph 3 mph 57 % 0 in
05:20 68 °F 51.6 °F 29.9 in SW 2 mph 3 mph 56 % 0 in
05:30 68 °F 51.3 °F 29.9 in WSW 2 mph 4 mph 55 % 0 in
10:33 68.7 °F 52.3 °F 29.9 in WNW 6.9 mph 6.9 mph 56 % 0 in
10:34 68.7 °F 52.3 °F 29.9 in WSW 6.9 mph 6.9 mph 56 % 0 in
10:39 68.7 °F 52 °F 30 in West 4.6 mph 4.6 mph 55 % 0 in
10:44 69.6 °F 52.7 °F 30 in WSW 2 mph 2 mph 55 % 0 in
10:49 69.6 °F 52.7 °F 30 in SW 5.8 mph 5.8 mph 55 % 0 in
10:54 69.1 °F 51.6 °F 30 in West 5.8 mph 5.8 mph 54 % 0 in
10:59 70.7 °F 52.2 °F 30 in SW 2.3 mph 2.3 mph 52 % 0 in
11:04 72 °F 54 °F 30 in West 6.2 mph 6.2 mph 53 % 0 in
11:09 72.1 °F 53.4 °F 30 in NNW 3.6 mph 3.6 mph 52 % 0 in
11:14 70.9 °F 51.8 °F 30 in West 4.6 mph 4.6 mph 51 % 0 in
11:19 71.4 °F 51.8 °F 30 in NE 3.5 mph 3.5 mph 50 % 0 in
11:24 72.1 °F 52.5 °F 30 in WSW 6 mph 6 mph 50 % 0 in
11:29 72.1 °F 52.5 °F 30 in NW 8.1 mph 8.1 mph 50 % 0 in
11:34 72.5 °F 52.2 °F 30 in ESE 4.6 mph 4.6 mph 49 % 0 in
11:39 73 °F 52.7 °F 30 in WSW 3.5 mph 3.5 mph 49 % 0 in
11:44 73.2 °F 52.9 °F 30 in WSW 3.5 mph 3.5 mph 49 % 0 in
11:49 73.8 °F 52.9 °F 30 in SW 2.3 mph 2.3 mph 48 % 0 in
11:54 74.3 °F 53.2 °F 30 in WSW 4.6 mph 4.6 mph 48 % 0 in
11:59 74.3 °F 52.9 °F 30 in NNW 3.5 mph 3.5 mph 47 % 0 in
12:04 73.6 °F 52.7 °F 30 in WSW 4.7 mph 4.7 mph 48 % 0 in
12:09 73.8 °F 52.3 °F 30 in South 3.5 mph 3.5 mph 47 % 0 in
12:14 74.3 °F 52.9 °F 30 in WSW 3.5 mph 3.5 mph 47 % 0 in
12:19 74.3 °F 52.9 °F 30 in West 3.5 mph 3.5 mph 47 % 0 in
12:24 74.7 °F 53.1 °F 30 in SSW 7.4 mph 7.4 mph 47 % 0 in
12:29 74.1 °F 52 °F 30 in WSW 4.6 mph 4.6 mph 46 % 0 in
12:34 74.1 °F 52 °F 30 in WSW 5.8 mph 5.8 mph 46 % 0 in
12:39 75.2 °F 52.3 °F 30 in SSW 4.7 mph 4.7 mph 45 % 0 in
12:44 75.7 °F 52.9 °F 30 in WNW 3.6 mph 3.8 mph 45 % 0 in
12:49 76.3 °F 52.9 °F 30 in WSW 2.9 mph 2.9 mph 44 % 0 in
12:54 76.8 °F 53.2 °F 30 in WSW 3.5 mph 3.6 mph 44 % 0 in
12:59 76.5 °F 52.3 °F 30 in SW 4.6 mph 4.6 mph 43 % 0 in
13:04 76.6 °F 52.5 °F 30 in West 5.8 mph 5.8 mph 43 % 0 in
13:09 76.3 °F 52.2 °F 30 in WSW 4.6 mph 4.6 mph 43 % 0 in
13:14 75.9 °F 51.3 °F 30 in West 5.8 mph 5.8 mph 42 % 0 in
13:19 76.1 °F 51.3 °F 30 in SW 4.6 mph 4.6 mph 42 % 0 in
13:24 76.1 °F 50.7 °F 30 in SSE 4.6 mph 4.6 mph 41 % 0 in
13:29 76.6 °F 51.3 °F 30 in SW 3.5 mph 3.5 mph 41 % 0 in
13:34 77.2 °F 51.1 °F 30 in West 10.4 mph 10.4 mph 40 % 0 in
13:39 78.1 °F 51.8 °F 30 in WSW 6.9 mph 6.9 mph 40 % 0 in
13:44 77.7 °F 50.7 °F 30 in SW 5.8 mph 5.8 mph 39 % 0 in
13:49 78.1 °F 51.1 °F 30 in WSW 3.3 mph 3.3 mph 39 % 0 in
13:54 77.9 °F 50.9 °F 30 in North 3.5 mph 3.5 mph 39 % 0 in
13:59 78.3 °F 51.3 °F 30 in WSW 3.1 mph 3.1 mph 39 % 0 in
14:04 79 °F 51.3 °F 30 in South 6.9 mph 6.9 mph 38 % 0 in
14:09 78.1 °F 50.4 °F 30 in WSW 6.9 mph 6.9 mph 38 % 0 in
14:14 77.5 °F 49.8 °F 30 in SW 4.6 mph 4.6 mph 38 % 0 in
14:19 77.5 °F 49.8 °F 30 in West 2.3 mph 2.3 mph 38 % 0 in
14:24 77.2 °F 49.6 °F 30 in SW 3.5 mph 3.5 mph 38 % 0 in
14:29 77.5 °F 49.3 °F 30 in West 2.9 mph 3.3 mph 37 % 0 in
14:34 77 °F 49.5 °F 30 in WSW 5.8 mph 5.8 mph 38 % 0 in
14:39 77.4 °F 48.9 °F 30 in West 3.5 mph 3.5 mph 37 % 0 in
14:40 77.5 °F 49.3 °F 30 in WSW 3.5 mph 3.5 mph 37 % 0 in
14:45 77.9 °F 49.5 °F 30 in SW 5.4 mph 5.4 mph 37 % 0 in
14:50 77.7 °F 49.5 °F 30 in West 3.5 mph 3.5 mph 37 % 0 in
14:55 77.5 °F 48.6 °F 30 in South 5.6 mph 5.6 mph 36 % 0 in
15:00 78.1 °F 49.6 °F 30 in SSE 3.5 mph 3.5 mph 37 % 0 in
15:05 78.6 °F 49.5 °F 30 in West 5.8 mph 5.8 mph 36 % 0 in
15:10 79.5 °F 50.2 °F 30 in WSW 4 mph 4 mph 36 % 0 in
15:15 79.7 °F 50.4 °F 30 in West 4.6 mph 4.6 mph 36 % 0 in
15:20 79.7 °F 50.4 °F 30 in SSW 3.5 mph 3.5 mph 36 % 0 in
15:25 79.7 °F 50.4 °F 30 in WSW 5.9 mph 5.9 mph 36 % 0 in
15:30 79.3 °F 48.6 °F 30 in WSW 5.8 mph 5.8 mph 34 % 0 in
15:35 79.2 °F 47.7 °F 30 in SSW 4.6 mph 4.6 mph 33 % 0 in
15:40 79.2 °F 49.1 °F 30 in SW 3.5 mph 3.5 mph 35 % 0 in
15:45 79.5 °F 49.5 °F 30 in West 4 mph 4 mph 35 % 0 in
15:50 79.7 °F 49.6 °F 29.9 in West 4.6 mph 4.6 mph 35 % 0 in
15:55 79.3 °F 49.3 °F 29.9 in WNW 2.4 mph 2.4 mph 35 % 0 in
16:00 80.1 °F 49.8 °F 29.9 in WNW 6 mph 6 mph 35 % 0 in
16:05 80.6 °F 48.7 °F 29.9 in West 4.6 mph 4.6 mph 33 % 0 in
16:10 80.1 °F 48.4 °F 29.9 in WNW 3.5 mph 3.5 mph 33 % 0 in
16:15 80.1 °F 49.3 °F 29.9 in NNW 3.5 mph 3.5 mph 34 % 0 in
16:20 79.7 °F 49.6 °F 30 in North 3.5 mph 3.5 mph 35 % 0 in
16:25 77.9 °F 50.9 °F 30 in North 4.6 mph 4.6 mph 39 % 0 in
16:30 77.7 °F 51.4 °F 30 in NW 5.8 mph 5.8 mph 40 % 0 in
16:35 77 °F 51.4 °F 30 in NNE 6.9 mph 6.9 mph 41 % 0 in
16:40 76.8 °F 52.5 °F 30 in ENE 10.4 mph 10.4 mph 43 % 0 in
16:45 75.6 °F 53.2 °F 30 in East 6.9 mph 6.9 mph 46 % 0 in
16:50 75.7 °F 54.1 °F 30 in SSE 6.9 mph 6.9 mph 47 % 0 in
16:51 75.7 °F 54.1 °F 30 in ESE 5.8 mph 5.8 mph 47 % 0 in
16:56 75.7 °F 54.1 °F 30 in East 3.5 mph 3.5 mph 47 % 0 in
17:01 75.6 °F 55 °F 30 in ESE 8.1 mph 8.1 mph 49 % 0 in
17:06 76.3 °F 55.8 °F 30 in ESE 3.5 mph 3.5 mph 49 % 0 in
17:11 75.2 °F 55.2 °F 30 in ESE 10.4 mph 10.4 mph 50 % 0 in
17:16 75 °F 55 °F 30 in East 8.1 mph 8.1 mph 50 % 0 in
17:21 76.1 °F 56.1 °F 30 in SSW 4.6 mph 4.6 mph 50 % 0 in
17:26 77 °F 55.8 °F 30 in SSW 5.8 mph 5.8 mph 48 % 0 in
17:31 77.2 °F 55.4 °F 30 in SSW 3.6 mph 3.6 mph 47 % 0 in
17:36 77 °F 55.2 °F 30 in SSW 7.8 mph 7.8 mph 47 % 0 in
17:41 77.5 °F 55.8 °F 30 in NNW 2.3 mph 2.3 mph 47 % 0 in
17:46 77.7 °F 55.9 °F 30 in South 4 mph 4 mph 47 % 0 in
17:51 77.5 °F 55.8 °F 30 in SSW 9.2 mph 9.2 mph 47 % 0 in
17:56 78.1 °F 56.1 °F 30 in SW 3.6 mph 3.6 mph 47 % 0 in
18:01 78.4 °F 56.5 °F 30 in SW 3.5 mph 3.5 mph 47 % 0 in
18:06 78.3 °F 55.8 °F 30 in West 5.8 mph 5.8 mph 46 % 0 in
18:11 78.4 °F 55.9 °F 30 in South 4.6 mph 4.6 mph 46 % 0 in
18:16 77.5 °F 55 °F 30 in SW 6.2 mph 6.2 mph 46 % 0 in
18:21 77.5 °F 55 °F 30 in WSW 5.4 mph 5.4 mph 46 % 0 in
18:26 76.3 °F 54 °F 30 in South 6.9 mph 6.9 mph 46 % 0 in
18:31 76.1 °F 54.3 °F 30 in SSW 5.8 mph 5.8 mph 47 % 0 in
18:36 75.7 °F 54.1 °F 30 in SW 7.4 mph 7.4 mph 47 % 0 in
18:41 75.9 °F 54.1 °F 30 in WSW 6.9 mph 6.9 mph 47 % 0 in
18:46 75.7 °F 54.1 °F 30 in WSW 5.4 mph 5.4 mph 47 % 0 in
18:51 75.6 °F 54 °F 30 in South 4 mph 4 mph 47 % 0 in
18:56 75.2 °F 53.6 °F 30 in ESE 5.8 mph 5.8 mph 47 % 0 in
19:01 74.5 °F 53.4 °F 30 in WSW 6.9 mph 6.9 mph 48 % 0 in
19:06 74.1 °F 53.2 °F 30 in WSW 3.5 mph 3.5 mph 48 % 0 in
19:10 65.3 °F 57.2 °F 30.1 in NNE 1 mph 1 mph 75 % 0 in
19:11 73.9 °F 53.1 °F 30 in WSW 3.8 mph 3.8 mph 48 % 0 in
19:16 73.6 °F 53.2 °F 30 in SW 7.1 mph 7.1 mph 49 % 0 in
19:20 65.1 °F 57 °F 30.1 in NNE 1 mph 1 mph 75 % 0 in
19:21 72.9 °F 53.1 °F 30 in SW 8.1 mph 8.1 mph 50 % 0 in
19:26 72.5 °F 53.2 °F 30 in SSW 3.5 mph 3.5 mph 51 % 0 in
19:30 64.9 °F 57.2 °F 30.1 in Calm   1 mph 76 % 0 in
19:31 72.3 °F 53.8 °F 30 in SSW 4.6 mph 4.6 mph 52 % 0 in
19:36 72.1 °F 53.4 °F 30 in South 6.9 mph 6.9 mph 52 % 0 in
19:40 64.8 °F 57 °F 30.1 in Calm     76 % 0 in
19:41 71.6 °F 53.6 °F 30 in SW 4.6 mph 4.6 mph 53 % 0 in
19:46 71.2 °F 53.8 °F 30 in SW 5.8 mph 5.8 mph 54 % 0 in
19:50 64.8 °F 57.4 °F 30.1 in Calm     77 % 0 in
19:51 71.1 °F 53.6 °F 30.1 in SW 4.6 mph 4.6 mph 54 % 0 in
19:56 70.7 °F 54.1 °F 30.1 in South 1.2 mph   56 % 0 in
20:00 64.8 °F 57.4 °F 30.1 in Calm     77 % 0 in
20:01 70.7 °F 54.1 °F 30.1 in West 3.5 mph 3.5 mph 56 % 0 in
20:06 70.3 °F 54 °F 30.1 in SSW 3.5 mph 3.5 mph 56 % 0 in
20:10 64.8 °F 57.4 °F 30.1 in Calm     77 % 0 in
20:11 70 °F 53.6 °F 30.1 in WSW 2.6 mph 2.6 mph 56 % 0 in
20:16 69.8 °F 53.4 °F 30.1 in SSW 3.5 mph 3.5 mph 56 % 0 in
20:20 64.9 °F 57.6 °F 30.1 in Calm     77 % 0 in
20:21 69.6 °F 54.1 °F 30.1 in Calm     58 % 0 in
20:26 69.4 °F 54 °F 30.1 in WSW 3.5 mph 3.5 mph 58 % 0 in
20:30 65.1 °F 57.7 °F 30.1 in Calm   1 mph 77 % 0 in
20:31 69.3 °F 53.8 °F 30.1 in WSW 2.3 mph 2.3 mph 58 % 0 in
20:36 69.1 °F 53.8 °F 30.1 in West 2.3 mph 2.3 mph 58 % 0 in
20:40 65.3 °F 57.9 °F 30.1 in Calm     77 % 0 in
20:41 68.9 °F 54 °F 30.1 in SW 2.3 mph 2.3 mph 59 % 0 in
20:46 68.7 °F 53.8 °F 30.1 in SW 1.2 mph 1.2 mph 59 % 0 in
20:50 65.3 °F 58.3 °F 30.1 in Calm   2 mph 78 % 0 in
20:51 68.5 °F 54.1 °F 30.1 in SW 1.2 mph 1.2 mph 60 % 0 in
20:56 68.4 °F 54.3 °F 30.1 in Calm     61 % 0 in
21:00 65.1 °F 58.1 °F 30.1 in NNE 2 mph 2 mph 78 % 0 in
21:01 68.2 °F 54.1 °F 30.1 in WSW 1.2 mph   61 % 0 in
21:06 68.2 °F 54.7 °F 30.1 in WSW 1.2 mph   62 % 0 in
21:10 64.9 °F 57.9 °F 30.1 in NE 1 mph 2 mph 78 % 0 in
21:11 68 °F 54.5 °F 30.1 in Calm     62 % 0 in
21:16 67.8 °F 55.2 °F 30.1 in Calm     64 % 0 in
21:20 64.6 °F 57.6 °F 30.1 in Calm   1 mph 78 % 0 in
21:21 67.8 °F 55.2 °F 30.1 in Calm     64 % 0 in
21:26 67.8 °F 55.6 °F 30.1 in South 0.9 mph   65 % 0 in
21:30 64.2 °F 57.2 °F 30.1 in Calm     78 % 0 in
21:31 67.6 °F 55.6 °F 30.1 in Calm     65 % 0 in
21:36 67.6 °F 55.6 °F 30.1 in SSW 1.2 mph 1.2 mph 65 % 0 in
21:40 63.9 °F 56.8 °F 30.1 in Calm     78 % 0 in
21:41 67.5 °F 55.8 °F 30.1 in Calm     66 % 0 in
21:46 67.3 °F 55.6 °F 30.1 in Calm     66 % 0 in
21:50 63.7 °F 57 °F 30.1 in Calm     79 % 0 in
21:51 67.3 °F 55.9 °F 30.1 in Calm     67 % 0 in
21:56 67.1 °F 55.8 °F 30.1 in Calm     67 % 0 in
22:00 63.7 °F 57 °F 30.1 in Calm     79 % 0 in
22:01 67.1 °F 56.1 °F 30.1 in ESE 1.2 mph   68 % 0 in
22:06 67.1 °F 56.7 °F 30.1 in ESE 1.2 mph   69 % 0 in
22:10 63.5 °F 56.8 °F 30.1 in Calm     79 % 0 in
22:11 66.9 °F 55.9 °F 30.1 in Calm     68 % 0 in
22:16 66.7 °F 56.1 °F 30.1 in Calm     69 % 0 in
22:20 63.3 °F 57 °F 30.1 in Calm     80 % 0 in
22:21 66.7 °F 56.1 °F 30.1 in Calm     69 % 0 in
22:26 66.6 °F 56.1 °F 30.1 in Calm     69 % 0 in
22:30 63.3 °F 57 °F 30.1 in SSW 1 mph 1 mph 80 % 0 in
22:31 66.6 °F 56.1 °F 30.1 in Calm     69 % 0 in
22:36 66.6 °F 56.1 °F 30.1 in South 1.4 mph 1.4 mph 69 % 0 in
22:40 63.3 °F 57.4 °F 30.1 in SSE 1 mph 1 mph 81 % 0 in
22:41 66.6 °F 56.5 °F 30.1 in Calm     70 % 0 in
22:46 66.4 °F 56.3 °F 30.1 in Calm     70 % 0 in
22:50 63.1 °F 57.2 °F 30.1 in ESE 1 mph 2 mph 81 % 0 in
22:51 66.4 °F 56.7 °F 30.1 in Calm     71 % 0 in
22:56 66.4 °F 56.7 °F 30.1 in Calm     71 % 0 in
23:00 63 °F 57 °F 30.1 in Calm   2 mph 81 % 0 in
23:01 66.4 °F 56.7 °F 30.1 in Calm     71 % 0 in
23:06 66.4 °F 56.7 °F 30.1 in Calm     71 % 0 in
23:10 62.6 °F 57 °F 30.2 in Calm   1 mph 82 % 0 in
23:11 66.4 °F 56.7 °F 30.1 in Calm     71 % 0 in
23:16 66.2 °F 56.8 °F 30.1 in ESE 1.2 mph   72 % 0 in
23:20 62.4 °F 56.8 °F 30.2 in Calm   1 mph 82 % 0 in
23:21 66.2 °F 56.8 °F 30.1 in ENE 1.6 mph   72 % 0 in
23:26 66 °F 57 °F 30.1 in ENE 2.3 mph 2.3 mph 73 % 0 in
23:30 62.4 °F 56.8 °F 30.1 in Calm   1 mph 82 % 0 in
23:31 65.8 °F 56.8 °F 30.1 in NNE 1.2 mph 1.2 mph 73 % 0 in
23:36 65.8 °F 56.8 °F 30.1 in NNE 2.3 mph   73 % 0 in
23:40 62.2 °F 57 °F 30.1 in Calm     83 % 0 in
23:41 65.7 °F 56.8 °F 30.1 in Calm     73 % 0 in
23:46 65.5 °F 57 °F 30.1 in Calm     74 % 0 in
23:50 62.2 °F 57 °F 30.1 in NNW 2 mph 3 mph 83 % 0 in
23:51 65.3 °F 56.8 °F 30.1 in Calm     74 % 0 in
23:56 65.3 °F 56.8 °F 30.1 in NNE 2.3 mph 2.3 mph 74 % 0 in
Meteo Sesrovires
Elogis d' Weather Underground - 3.75 mb

Guio original per  Jim McMurry - jmcmurry@mwt.net Adaptat per a la plantilla per  Wim van der Kuil - Leuven-Template.eu

Trobareu la nostra informacio del temps tambe a:

Weather Underground

AWEKAS